aviador You're here:

KSLB Decoded Metar

STORM LAKE in IA, USA
Report Time2018-01-17 17:55:00
UTC Time2018-01-17 18:17:40
Flight Rules vfr VFR
Wind240° at 20 Gusting to 29 kt
W.Decomp.*RWY 24: 20.0 kt HW 1.4 kt LCW
RWY 17: 8.1 kt HW 18.3 kt RCW
RWY 31: 5.5 kt HW 19.2 kt LCW
W.Rank240° ranks 24
Current wind is above 240° avg. (9.1)
Visibility9999 m
Phenomena:N/A
Clouds:N/A
Expected CloudBase > 2,800 ft AGL from Temp-Dew spread
CeilingNone
Temp-6°C (ISA -18)
Dew Point-13°C (58% RH)
AAT-16.5°C
QNH1027 hPa
Density Alt-1,178 ft
Elevation1,490 ft
Report Wrong Elevation
Raw Report
METAR KSLB 171755Z AUTO 24020G29KT 10SM CLR M06/M13 A3034 RMK AO2=

Extra information for KSLB:More info

Metar Taf Metar & Taf Last 4 Metars F.Rules Stats Wind Profile Meteogram Temp Stats Airport Information Weather charts Add Link Nearby VenuesMetar ALERT Operation Metar Decoded Social comments

AIRNAV info for KSLB